Aviation Digital Data Service (ADDS)

Output produced by METARs form (0611 UTC 20 October 2018)
found at http://www.aviationweather.gov/metar/data/
 
FOON 200500Z 00000KT 9999 FEW013 22/21 Q1010
FOOL 200600Z 14007KT 9999 SCT012 26/24 Q1010 NOSIG
TAF FOOL 200500Z 2006/2112 22007KT 9999 SCT012 FEW020CB BKN033 
     TEMPO 2012/2015 TS 
     PROB30 
     TEMPO 2017/2024 3000 TSRA BKN006 FEW016CB OVC023
       
FOOG 200500Z 17004KT 9999 SCT008 BKN030 26/24 Q1009
TAF FOOG 200500Z 2006/2106 22009KT 9999 SCT011 FEW020CB BKN030 
     PROB30 
     TEMPO 2018/2024 3500 TSRA BKN008 FEW018CB OVC023